Aviation Digital Data Service (ADDS)

Output produced by METARs form (1210 UTC 15 December 2017)
found at http://aviationweather.gov/adds/metars/
 
KVQQ 151151Z 1512/1612 00000KT P6SM BKN030 BKN250 
     FM151400 VRB02KT P6SM SCT030 BKN250 
     FM151600 26007KT P6SM SCT030 BKN100 
     FM160000 VRB03KT P6SM BKN250